sensor_id;sensor_type;location;lat;lon;timestamp;P1;durP1;ratioP1;P2;durP2;ratioP2
72095;SDS011;59968;51.084;16.748;2023-06-04T00:01:04;3.00;;;1.70;;
72095;SDS011;59968;51.084;16.748;2023-06-04T00:03:56;3.10;;;1.60;;
72095;SDS011;59968;51.084;16.748;2023-06-04T00:06:25;3.50;;;1.70;;
72095;SDS011;59968;51.084;16.748;2023-06-04T00:08:54;4.40;;;1.90;;
72095;SDS011;59968;51.084;16.748;2023-06-04T00:11:23;3.90;;;2.30;;
72095;SDS011;59968;51.084;16.748;2023-06-04T00:13:54;5.10;;;1.90;;
72095;SDS011;59968;51.084;16.748;2023-06-04T00:16:23;3.50;;;1.60;;
72095;SDS011;59968;51.084;16.748;2023-06-04T00:18:52;3.90;;;2.00;;
72095;SDS011;59968;51.084;16.748;2023-06-04T00:21:21;3.60;;;1.80;;
72095;SDS011;59968;51.084;16.748;2023-06-04T00:23:49;4.90;;;1.70;;
72095;SDS011;59968;51.084;16.748;2023-06-04T00:26:18;2.90;;;1.50;;
72095;SDS011;59968;51.084;16.748;2023-06-04T00:28:47;4.70;;;1.90;;
72095;SDS011;59968;51.084;16.748;2023-06-04T00:31:15;4.20;;;1.60;;
72095;SDS011;59968;51.084;16.748;2023-06-04T00:33:44;3.70;;;1.80;;
72095;SDS011;59968;51.084;16.748;2023-06-04T00:36:12;3.10;;;1.60;;
72095;SDS011;59968;51.084;16.748;2023-06-04T00:38:41;7.20;;;2.20;;
72095;SDS011;59968;51.084;16.748;2023-06-04T00:41:10;3.90;;;2.40;;
72095;SDS011;59968;51.084;16.748;2023-06-04T00:43:38;3.60;;;1.90;;
72095;SDS011;59968;51.084;16.748;2023-06-04T00:46:07;5.00;;;2.00;;
72095;SDS011;59968;51.084;16.748;2023-06-04T00:48:35;3.30;;;1.90;;
72095;SDS011;59968;51.084;16.748;2023-06-04T00:51:05;4.70;;;1.90;;
72095;SDS011;59968;51.084;16.748;2023-06-04T00:53:34;3.60;;;1.90;;
72095;SDS011;59968;51.084;16.748;2023-06-04T00:56:03;4.90;;;1.90;;
72095;SDS011;59968;51.084;16.748;2023-06-04T00:58:44;3.80;;;1.90;;
72095;SDS011;59968;51.084;16.748;2023-06-04T01:03:49;5.20;;;1.80;;
72095;SDS011;59968;51.084;16.748;2023-06-04T01:06:38;3.70;;;2.00;;
72095;SDS011;59968;51.084;16.748;2023-06-04T01:09:10;4.40;;;2.10;;
72095;SDS011;59968;51.084;16.748;2023-06-04T01:11:45;4.80;;;1.80;;
72095;SDS011;59968;51.084;16.748;2023-06-04T01:14:26;6.50;;;2.20;;
72095;SDS011;59968;51.084;16.748;2023-06-04T01:17:16;4.50;;;2.00;;
72095;SDS011;59968;51.084;16.748;2023-06-04T01:25:40;3.90;;;1.80;;
72095;SDS011;59968;51.084;16.748;2023-06-04T01:28:17;4.00;;;1.80;;
72095;SDS011;59968;51.084;16.748;2023-06-04T01:31:07;4.30;;;1.50;;
72095;SDS011;59968;51.084;16.748;2023-06-04T01:33:50;3.90;;;1.90;;
72095;SDS011;59968;51.084;16.748;2023-06-04T01:36:25;4.40;;;2.10;;
72095;SDS011;59968;51.084;16.748;2023-06-04T01:38:56;5.80;;;2.30;;
72095;SDS011;59968;51.084;16.748;2023-06-04T01:41:31;6.20;;;2.00;;
72095;SDS011;59968;51.084;16.748;2023-06-04T01:44:09;5.20;;;2.10;;
72095;SDS011;59968;51.084;16.748;2023-06-04T01:46:41;6.40;;;2.40;;
72095;SDS011;59968;51.084;16.748;2023-06-04T01:49:15;4.80;;;2.30;;
72095;SDS011;59968;51.084;16.748;2023-06-04T01:51:44;5.80;;;2.40;;
72095;SDS011;59968;51.084;16.748;2023-06-04T01:54:15;4.60;;;2.10;;
72095;SDS011;59968;51.084;16.748;2023-06-04T01:56:47;5.90;;;2.20;;
72095;SDS011;59968;51.084;16.748;2023-06-04T01:59:37;4.80;;;2.10;;
72095;SDS011;59968;51.084;16.748;2023-06-04T02:02:07;7.40;;;2.20;;
72095;SDS011;59968;51.084;16.748;2023-06-04T02:04:50;3.90;;;2.00;;
72095;SDS011;59968;51.084;16.748;2023-06-04T02:07:24;4.50;;;2.00;;
72095;SDS011;59968;51.084;16.748;2023-06-04T02:09:56;4.10;;;2.20;;
72095;SDS011;59968;51.084;16.748;2023-06-04T02:12:30;5.00;;;2.20;;
72095;SDS011;59968;51.084;16.748;2023-06-04T02:14:59;7.30;;;2.50;;
72095;SDS011;59968;51.084;16.748;2023-06-04T02:17:28;4.80;;;2.40;;
72095;SDS011;59968;51.084;16.748;2023-06-04T02:20:08;5.80;;;2.10;;
72095;SDS011;59968;51.084;16.748;2023-06-04T02:22:38;4.60;;;2.00;;
72095;SDS011;59968;51.084;16.748;2023-06-04T02:25:21;4.30;;;2.30;;
72095;SDS011;59968;51.084;16.748;2023-06-04T02:28:04;5.50;;;2.20;;
72095;SDS011;59968;51.084;16.748;2023-06-04T02:30:41;4.20;;;2.20;;
72095;SDS011;59968;51.084;16.748;2023-06-04T02:33:12;3.90;;;2.00;;
72095;SDS011;59968;51.084;16.748;2023-06-04T02:35:43;3.70;;;1.80;;
72095;SDS011;59968;51.084;16.748;2023-06-04T02:38:18;4.10;;;2.10;;
72095;SDS011;59968;51.084;16.748;2023-06-04T02:40:56;4.90;;;2.70;;
72095;SDS011;59968;51.084;16.748;2023-06-04T02:43:25;6.40;;;2.10;;
72095;SDS011;59968;51.084;16.748;2023-06-04T02:45:54;4.10;;;2.10;;
72095;SDS011;59968;51.084;16.748;2023-06-04T02:48:39;5.40;;;2.00;;
72095;SDS011;59968;51.084;16.748;2023-06-04T02:51:18;3.90;;;1.90;;
72095;SDS011;59968;51.084;16.748;2023-06-04T02:53:52;3.90;;;2.00;;
72095;SDS011;59968;51.084;16.748;2023-06-04T02:56:32;4.50;;;2.10;;
72095;SDS011;59968;51.084;16.748;2023-06-04T02:59:08;3.80;;;1.90;;
72095;SDS011;59968;51.084;16.748;2023-06-04T03:01:43;5.80;;;2.00;;
72095;SDS011;59968;51.084;16.748;2023-06-04T03:04:23;4.90;;;2.30;;
72095;SDS011;59968;51.084;16.748;2023-06-04T03:07:05;4.20;;;2.20;;
72095;SDS011;59968;51.084;16.748;2023-06-04T03:09:56;5.60;;;2.20;;
72095;SDS011;59968;51.084;16.748;2023-06-04T03:12:33;3.60;;;1.90;;
72095;SDS011;59968;51.084;16.748;2023-06-04T03:15:10;6.10;;;1.90;;
72095;SDS011;59968;51.084;16.748;2023-06-04T03:17:44;5.10;;;2.20;;
72095;SDS011;59968;51.084;16.748;2023-06-04T03:20:22;6.30;;;2.80;;
72095;SDS011;59968;51.084;16.748;2023-06-04T03:22:58;5.80;;;2.10;;
72095;SDS011;59968;51.084;16.748;2023-06-04T03:25:36;3.30;;;1.70;;
72095;SDS011;59968;51.084;16.748;2023-06-04T03:28:12;4.60;;;2.20;;
72095;SDS011;59968;51.084;16.748;2023-06-04T03:30:45;5.40;;;1.90;;
72095;SDS011;59968;51.084;16.748;2023-06-04T03:33:40;4.70;;;2.20;;
72095;SDS011;59968;51.084;16.748;2023-06-04T03:36:16;4.80;;;2.10;;
72095;SDS011;59968;51.084;16.748;2023-06-04T03:38:56;6.20;;;2.20;;
72095;SDS011;59968;51.084;16.748;2023-06-04T03:41:30;5.30;;;2.00;;
72095;SDS011;59968;51.084;16.748;2023-06-04T03:44:07;5.10;;;2.30;;
72095;SDS011;59968;51.084;16.748;2023-06-04T03:47:09;4.90;;;1.80;;
72095;SDS011;59968;51.084;16.748;2023-06-04T03:49:46;3.30;;;1.80;;
72095;SDS011;59968;51.084;16.748;2023-06-04T03:52:23;4.30;;;2.10;;
72095;SDS011;59968;51.084;16.748;2023-06-04T03:54:57;4.10;;;1.90;;
72095;SDS011;59968;51.084;16.748;2023-06-04T03:57:36;4.20;;;2.10;;
72095;SDS011;59968;51.084;16.748;2023-06-04T04:00:09;4.30;;;2.20;;
72095;SDS011;59968;51.084;16.748;2023-06-04T04:02:50;5.50;;;2.10;;
72095;SDS011;59968;51.084;16.748;2023-06-04T04:05:24;6.00;;;2.20;;
72095;SDS011;59968;51.084;16.748;2023-06-04T04:07:53;5.70;;;2.30;;
72095;SDS011;59968;51.084;16.748;2023-06-04T04:10:28;6.70;;;2.70;;
72095;SDS011;59968;51.084;16.748;2023-06-04T04:12:57;4.50;;;2.50;;
72095;SDS011;59968;51.084;16.748;2023-06-04T04:15:28;6.90;;;2.30;;
72095;SDS011;59968;51.084;16.748;2023-06-04T04:18:07;4.30;;;2.20;;
72095;SDS011;59968;51.084;16.748;2023-06-04T04:20:39;5.00;;;2.30;;
72095;SDS011;59968;51.084;16.748;2023-06-04T04:23:10;6.30;;;3.00;;
72095;SDS011;59968;51.084;16.748;2023-06-04T04:25:40;7.10;;;3.00;;
72095;SDS011;59968;51.084;16.748;2023-06-04T04:28:09;6.00;;;2.80;;
72095;SDS011;59968;51.084;16.748;2023-06-04T04:30:39;6.70;;;2.50;;
72095;SDS011;59968;51.084;16.748;2023-06-04T04:33:11;5.40;;;2.90;;
72095;SDS011;59968;51.084;16.748;2023-06-04T04:35:47;6.40;;;2.70;;
72095;SDS011;59968;51.084;16.748;2023-06-04T04:38:21;6.30;;;3.00;;
72095;SDS011;59968;51.084;16.748;2023-06-04T04:40:57;5.80;;;2.80;;
72095;SDS011;59968;51.084;16.748;2023-06-04T04:43:32;6.90;;;2.90;;
72095;SDS011;59968;51.084;16.748;2023-06-04T04:46:18;5.80;;;2.60;;
72095;SDS011;59968;51.084;16.748;2023-06-04T04:48:48;7.80;;;3.00;;
72095;SDS011;59968;51.084;16.748;2023-06-04T04:51:16;7.30;;;3.40;;
72095;SDS011;59968;51.084;16.748;2023-06-04T04:53:45;5.80;;;2.60;;
72095;SDS011;59968;51.084;16.748;2023-06-04T04:56:14;6.70;;;3.10;;
72095;SDS011;59968;51.084;16.748;2023-06-04T04:58:45;7.80;;;3.40;;
72095;SDS011;59968;51.084;16.748;2023-06-04T05:01:14;6.50;;;3.20;;
72095;SDS011;59968;51.084;16.748;2023-06-04T05:03:43;6.80;;;3.00;;
72095;SDS011;59968;51.084;16.748;2023-06-04T05:06:13;6.30;;;3.20;;
72095;SDS011;59968;51.084;16.748;2023-06-04T05:08:42;5.30;;;3.30;;
72095;SDS011;59968;51.084;16.748;2023-06-04T05:11:11;7.40;;;3.10;;
72095;SDS011;59968;51.084;16.748;2023-06-04T05:13:40;5.50;;;2.90;;
72095;SDS011;59968;51.084;16.748;2023-06-04T05:16:10;5.50;;;3.00;;
72095;SDS011;59968;51.084;16.748;2023-06-04T05:18:43;6.70;;;2.90;;
72095;SDS011;59968;51.084;16.748;2023-06-04T05:21:19;5.90;;;2.70;;
72095;SDS011;59968;51.084;16.748;2023-06-04T05:23:53;6.50;;;3.10;;
72095;SDS011;59968;51.084;16.748;2023-06-04T05:26:23;6.50;;;3.10;;
72095;SDS011;59968;51.084;16.748;2023-06-04T05:28:59;6.70;;;3.50;;
72095;SDS011;59968;51.084;16.748;2023-06-04T05:31:30;5.50;;;3.30;;
72095;SDS011;59968;51.084;16.748;2023-06-04T05:34:02;4.70;;;2.60;;
72095;SDS011;59968;51.084;16.748;2023-06-04T05:36:33;6.70;;;3.10;;
72095;SDS011;59968;51.084;16.748;2023-06-04T05:39:03;6.10;;;3.10;;
72095;SDS011;59968;51.084;16.748;2023-06-04T05:41:38;6.20;;;3.00;;
72095;SDS011;59968;51.084;16.748;2023-06-04T05:44:06;6.30;;;3.00;;
72095;SDS011;59968;51.084;16.748;2023-06-04T05:46:35;6.40;;;2.90;;
72095;SDS011;59968;51.084;16.748;2023-06-04T05:49:04;6.50;;;3.00;;
72095;SDS011;59968;51.084;16.748;2023-06-04T05:51:33;7.40;;;3.60;;
72095;SDS011;59968;51.084;16.748;2023-06-04T05:54:01;6.40;;;3.10;;
72095;SDS011;59968;51.084;16.748;2023-06-04T05:56:31;6.30;;;3.00;;
72095;SDS011;59968;51.084;16.748;2023-06-04T05:59:00;6.60;;;3.30;;
72095;SDS011;59968;51.084;16.748;2023-06-04T06:01:28;5.90;;;3.10;;
72095;SDS011;59968;51.084;16.748;2023-06-04T06:03:57;6.10;;;3.30;;
72095;SDS011;59968;51.084;16.748;2023-06-04T06:06:28;6.70;;;3.40;;
72095;SDS011;59968;51.084;16.748;2023-06-04T06:08:57;7.10;;;3.10;;
72095;SDS011;59968;51.084;16.748;2023-06-04T06:11:29;6.70;;;3.20;;
72095;SDS011;59968;51.084;16.748;2023-06-04T06:13:58;6.20;;;3.00;;
72095;SDS011;59968;51.084;16.748;2023-06-04T06:16:28;6.90;;;3.30;;
72095;SDS011;59968;51.084;16.748;2023-06-04T06:18:58;5.40;;;3.10;;
72095;SDS011;59968;51.084;16.748;2023-06-04T06:21:26;7.00;;;3.00;;
72095;SDS011;59968;51.084;16.748;2023-06-04T06:23:55;5.70;;;2.80;;
72095;SDS011;59968;51.084;16.748;2023-06-04T06:26:24;5.50;;;3.10;;
72095;SDS011;59968;51.084;16.748;2023-06-04T06:28:57;6.20;;;3.30;;
72095;SDS011;59968;51.084;16.748;2023-06-04T06:31:26;7.30;;;3.30;;
72095;SDS011;59968;51.084;16.748;2023-06-04T06:33:56;5.10;;;3.00;;
72095;SDS011;59968;51.084;16.748;2023-06-04T06:36:26;5.80;;;2.70;;
72095;SDS011;59968;51.084;16.748;2023-06-04T06:38:57;5.50;;;2.80;;
72095;SDS011;59968;51.084;16.748;2023-06-04T06:41:26;5.50;;;3.30;;
72095;SDS011;59968;51.084;16.748;2023-06-04T06:43:54;5.50;;;2.50;;
72095;SDS011;59968;51.084;16.748;2023-06-04T06:46:24;6.70;;;2.70;;
72095;SDS011;59968;51.084;16.748;2023-06-04T06:48:53;5.90;;;2.80;;
72095;SDS011;59968;51.084;16.748;2023-06-04T06:51:22;5.80;;;3.00;;
72095;SDS011;59968;51.084;16.748;2023-06-04T06:53:50;5.40;;;2.80;;
72095;SDS011;59968;51.084;16.748;2023-06-04T06:56:19;6.20;;;3.30;;
72095;SDS011;59968;51.084;16.748;2023-06-04T06:58:47;6.20;;;2.90;;
72095;SDS011;59968;51.084;16.748;2023-06-04T07:01:15;4.50;;;2.60;;
72095;SDS011;59968;51.084;16.748;2023-06-04T07:03:44;5.40;;;2.70;;
72095;SDS011;59968;51.084;16.748;2023-06-04T07:06:13;5.40;;;2.90;;
72095;SDS011;59968;51.084;16.748;2023-06-04T07:08:41;4.60;;;2.60;;
72095;SDS011;59968;51.084;16.748;2023-06-04T07:11:10;5.00;;;2.70;;
72095;SDS011;59968;51.084;16.748;2023-06-04T07:13:41;5.00;;;2.80;;
72095;SDS011;59968;51.084;16.748;2023-06-04T07:16:10;5.70;;;2.80;;
72095;SDS011;59968;51.084;16.748;2023-06-04T07:18:39;4.60;;;2.50;;
72095;SDS011;59968;51.084;16.748;2023-06-04T07:21:07;5.20;;;4.30;;
72095;SDS011;59968;51.084;16.748;2023-06-04T07:23:36;4.40;;;2.40;;
72095;SDS011;59968;51.084;16.748;2023-06-04T07:26:05;4.60;;;2.20;;
72095;SDS011;59968;51.084;16.748;2023-06-04T07:28:34;5.00;;;2.60;;
72095;SDS011;59968;51.084;16.748;2023-06-04T07:31:03;4.90;;;2.70;;
72095;SDS011;59968;51.084;16.748;2023-06-04T07:33:32;4.40;;;2.40;;
72095;SDS011;59968;51.084;16.748;2023-06-04T07:36:01;3.90;;;2.10;;
72095;SDS011;59968;51.084;16.748;2023-06-04T07:38:29;5.40;;;2.20;;
72095;SDS011;59968;51.084;16.748;2023-06-04T07:40:58;4.20;;;1.80;;
72095;SDS011;59968;51.084;16.748;2023-06-04T07:43:26;5.80;;;2.60;;
72095;SDS011;59968;51.084;16.748;2023-06-04T07:45:55;4.60;;;2.50;;
72095;SDS011;59968;51.084;16.748;2023-06-04T07:48:24;4.60;;;2.60;;
72095;SDS011;59968;51.084;16.748;2023-06-04T07:51:00;3.40;;;2.10;;
72095;SDS011;59968;51.084;16.748;2023-06-04T07:53:30;4.50;;;2.20;;
72095;SDS011;59968;51.084;16.748;2023-06-04T07:55:58;3.80;;;2.10;;
72095;SDS011;59968;51.084;16.748;2023-06-04T07:58:27;3.60;;;2.10;;
72095;SDS011;59968;51.084;16.748;2023-06-04T08:00:55;4.00;;;1.80;;
72095;SDS011;59968;51.084;16.748;2023-06-04T08:03:24;3.50;;;1.80;;
72095;SDS011;59968;51.084;16.748;2023-06-04T08:05:52;4.10;;;1.80;;
72095;SDS011;59968;51.084;16.748;2023-06-04T08:08:21;4.40;;;1.90;;
72095;SDS011;59968;51.084;16.748;2023-06-04T08:10:50;3.40;;;2.00;;
72095;SDS011;59968;51.084;16.748;2023-06-04T08:13:19;3.10;;;1.60;;
72095;SDS011;59968;51.084;16.748;2023-06-04T08:15:51;3.70;;;1.60;;
72095;SDS011;59968;51.084;16.748;2023-06-04T08:18:20;3.70;;;1.60;;
72095;SDS011;59968;51.084;16.748;2023-06-04T08:20:51;4.50;;;1.70;;
72095;SDS011;59968;51.084;16.748;2023-06-04T08:23:19;3.20;;;1.50;;
72095;SDS011;59968;51.084;16.748;2023-06-04T08:25:48;6.10;;;1.90;;
72095;SDS011;59968;51.084;16.748;2023-06-04T08:28:17;4.10;;;1.90;;
72095;SDS011;59968;51.084;16.748;2023-06-04T08:30:49;2.90;;;1.70;;
72095;SDS011;59968;51.084;16.748;2023-06-04T08:33:18;1.70;;;1.40;;
72095;SDS011;59968;51.084;16.748;2023-06-04T08:35:48;3.40;;;1.90;;
72095;SDS011;59968;51.084;16.748;2023-06-04T08:38:17;3.80;;;1.80;;
72095;SDS011;59968;51.084;16.748;2023-06-04T08:40:47;4.80;;;1.90;;
72095;SDS011;59968;51.084;16.748;2023-06-04T08:43:21;3.10;;;1.90;;
72095;SDS011;59968;51.084;16.748;2023-06-04T08:45:50;3.40;;;1.30;;
72095;SDS011;59968;51.084;16.748;2023-06-04T08:48:27;2.50;;;1.30;;
72095;SDS011;59968;51.084;16.748;2023-06-04T08:51:05;7.10;;;1.40;;
72095;SDS011;59968;51.084;16.748;2023-06-04T08:53:39;5.60;;;1.80;;
72095;SDS011;59968;51.084;16.748;2023-06-04T08:56:10;4.50;;;1.30;;
72095;SDS011;59968;51.084;16.748;2023-06-04T08:58:44;3.00;;;2.10;;
72095;SDS011;59968;51.084;16.748;2023-06-04T09:01:17;3.70;;;1.60;;
72095;SDS011;59968;51.084;16.748;2023-06-04T09:03:47;2.90;;;1.40;;
72095;SDS011;59968;51.084;16.748;2023-06-04T09:06:17;3.80;;;1.70;;
72095;SDS011;59968;51.084;16.748;2023-06-04T09:08:46;4.00;;;1.50;;
72095;SDS011;59968;51.084;16.748;2023-06-04T09:11:30;3.30;;;1.80;;
72095;SDS011;59968;51.084;16.748;2023-06-04T09:14:04;2.80;;;1.50;;
72095;SDS011;59968;51.084;16.748;2023-06-04T09:16:46;2.60;;;1.30;;
72095;SDS011;59968;51.084;16.748;2023-06-04T09:19:17;1.80;;;1.30;;
72095;SDS011;59968;51.084;16.748;2023-06-04T09:21:50;3.90;;;1.80;;
72095;SDS011;59968;51.084;16.748;2023-06-04T09:24:19;4.10;;;1.90;;
72095;SDS011;59968;51.084;16.748;2023-06-04T09:26:50;4.30;;;2.10;;
72095;SDS011;59968;51.084;16.748;2023-06-04T09:29:19;2.60;;;1.40;;
72095;SDS011;59968;51.084;16.748;2023-06-04T09:31:58;3.00;;;1.40;;
72095;SDS011;59968;51.084;16.748;2023-06-04T09:34:27;5.30;;;1.50;;
72095;SDS011;59968;51.084;16.748;2023-06-04T09:36:57;2.00;;;1.50;;
72095;SDS011;59968;51.084;16.748;2023-06-04T09:39:29;2.40;;;1.50;;
72095;SDS011;59968;51.084;16.748;2023-06-04T09:41:58;2.80;;;1.30;;
72095;SDS011;59968;51.084;16.748;2023-06-04T09:44:42;2.60;;;1.60;;
72095;SDS011;59968;51.084;16.748;2023-06-04T09:47:14;3.50;;;1.60;;
72095;SDS011;59968;51.084;16.748;2023-06-04T09:49:44;3.30;;;1.80;;
72095;SDS011;59968;51.084;16.748;2023-06-04T09:52:16;2.10;;;1.40;;
72095;SDS011;59968;51.084;16.748;2023-06-04T09:54:45;2.50;;;1.60;;
72095;SDS011;59968;51.084;16.748;2023-06-04T09:57:17;2.10;;;1.40;;
72095;SDS011;59968;51.084;16.748;2023-06-04T09:59:50;1.90;;;1.50;;
72095;SDS011;59968;51.084;16.748;2023-06-04T10:02:22;2.80;;;1.60;;
72095;SDS011;59968;51.084;16.748;2023-06-04T10:04:53;2.80;;;1.50;;
72095;SDS011;59968;51.084;16.748;2023-06-04T10:07:26;2.60;;;1.60;;
72095;SDS011;59968;51.084;16.748;2023-06-04T10:09:54;2.40;;;1.60;;
72095;SDS011;59968;51.084;16.748;2023-06-04T10:12:26;3.50;;;1.30;;
72095;SDS011;59968;51.084;16.748;2023-06-04T10:15:02;2.10;;;1.50;;
72095;SDS011;59968;51.084;16.748;2023-06-04T10:17:33;2.70;;;1.40;;
72095;SDS011;59968;51.084;16.748;2023-06-04T10:20:03;3.30;;;1.60;;
72095;SDS011;59968;51.084;16.748;2023-06-04T10:22:34;2.80;;;1.80;;
72095;SDS011;59968;51.084;16.748;2023-06-04T10:25:04;3.90;;;1.60;;
72095;SDS011;59968;51.084;16.748;2023-06-04T10:27:32;4.50;;;1.70;;
72095;SDS011;59968;51.084;16.748;2023-06-04T10:30:04;3.30;;;1.90;;
72095;SDS011;59968;51.084;16.748;2023-06-04T10:32:33;2.60;;;1.50;;
72095;SDS011;59968;51.084;16.748;2023-06-04T10:35:03;2.70;;;1.60;;
72095;SDS011;59968;51.084;16.748;2023-06-04T10:37:38;2.70;;;1.70;;
72095;SDS011;59968;51.084;16.748;2023-06-04T10:40:07;4.10;;;1.80;;
72095;SDS011;59968;51.084;16.748;2023-06-04T10:42:38;2.50;;;1.60;;
72095;SDS011;59968;51.084;16.748;2023-06-04T10:45:10;2.90;;;1.80;;
72095;SDS011;59968;51.084;16.748;2023-06-04T10:47:41;3.10;;;1.60;;
72095;SDS011;59968;51.084;16.748;2023-06-04T10:50:12;2.60;;;1.80;;
72095;SDS011;59968;51.084;16.748;2023-06-04T10:52:52;2.40;;;1.90;;
72095;SDS011;59968;51.084;16.748;2023-06-04T10:55:21;2.20;;;1.70;;
72095;SDS011;59968;51.084;16.748;2023-06-04T10:57:53;2.60;;;1.90;;
72095;SDS011;59968;51.084;16.748;2023-06-04T11:00:34;2.30;;;1.70;;
72095;SDS011;59968;51.084;16.748;2023-06-04T11:03:07;4.20;;;2.10;;
72095;SDS011;59968;51.084;16.748;2023-06-04T11:05:37;2.30;;;1.70;;
72095;SDS011;59968;51.084;16.748;2023-06-04T11:08:08;2.90;;;2.00;;
72095;SDS011;59968;51.084;16.748;2023-06-04T11:10:43;2.60;;;1.70;;
72095;SDS011;59968;51.084;16.748;2023-06-04T11:13:13;11.60;;;1.80;;
72095;SDS011;59968;51.084;16.748;2023-06-04T11:15:43;2.70;;;2.10;;
72095;SDS011;59968;51.084;16.748;2023-06-04T11:18:13;4.70;;;1.90;;
72095;SDS011;59968;51.084;16.748;2023-06-04T11:20:50;4.90;;;1.80;;
72095;SDS011;59968;51.084;16.748;2023-06-04T11:23:27;2.90;;;1.60;;
72095;SDS011;59968;51.084;16.748;2023-06-04T11:25:57;2.30;;;1.60;;
72095;SDS011;59968;51.084;16.748;2023-06-04T11:28:26;3.70;;;2.10;;
72095;SDS011;59968;51.084;16.748;2023-06-04T11:33:44;3.70;;;2.30;;
72095;SDS011;59968;51.084;16.748;2023-06-04T11:36:33;2.70;;;1.70;;
72095;SDS011;59968;51.084;16.748;2023-06-04T11:39:02;4.00;;;1.70;;
72095;SDS011;59968;51.084;16.748;2023-06-04T11:41:37;3.00;;;2.00;;
72095;SDS011;59968;51.084;16.748;2023-06-04T11:44:07;4.10;;;1.90;;
72095;SDS011;59968;51.084;16.748;2023-06-04T11:46:41;2.50;;;1.70;;
72095;SDS011;59968;51.084;16.748;2023-06-04T11:49:15;2.70;;;1.80;;
72095;SDS011;59968;51.084;16.748;2023-06-04T11:52:00;2.90;;;2.10;;
72095;SDS011;59968;51.084;16.748;2023-06-04T11:54:31;2.80;;;2.00;;
72095;SDS011;59968;51.084;16.748;2023-06-04T11:57:07;3.50;;;1.80;;
72095;SDS011;59968;51.084;16.748;2023-06-04T11:59:38;3.50;;;2.30;;
72095;SDS011;59968;51.084;16.748;2023-06-04T12:02:10;3.10;;;2.20;;
72095;SDS011;59968;51.084;16.748;2023-06-04T12:04:39;3.20;;;1.90;;
72095;SDS011;59968;51.084;16.748;2023-06-04T12:07:21;3.30;;;2.20;;
72095;SDS011;59968;51.084;16.748;2023-06-04T12:09:52;2.40;;;1.90;;
72095;SDS011;59968;51.084;16.748;2023-06-04T12:12:24;3.40;;;1.80;;
72095;SDS011;59968;51.084;16.748;2023-06-04T12:14:57;3.20;;;2.20;;
72095;SDS011;59968;51.084;16.748;2023-06-04T12:17:27;2.60;;;1.80;;
72095;SDS011;59968;51.084;16.748;2023-06-04T12:20:14;3.50;;;1.90;;
72095;SDS011;59968;51.084;16.748;2023-06-04T12:22:44;4.30;;;1.90;;
72095;SDS011;59968;51.084;16.748;2023-06-04T12:25:24;3.90;;;2.10;;
72095;SDS011;59968;51.084;16.748;2023-06-04T12:27:55;4.40;;;2.20;;
72095;SDS011;59968;51.084;16.748;2023-06-04T12:30:36;3.70;;;2.00;;
72095;SDS011;59968;51.084;16.748;2023-06-04T12:33:10;3.70;;;1.90;;
72095;SDS011;59968;51.084;16.748;2023-06-04T12:35:41;4.00;;;2.30;;
72095;SDS011;59968;51.084;16.748;2023-06-04T12:38:12;3.40;;;2.40;;
72095;SDS011;59968;51.084;16.748;2023-06-04T12:40:44;4.90;;;2.30;;
72095;SDS011;59968;51.084;16.748;2023-06-04T12:43:13;4.50;;;2.10;;
72095;SDS011;59968;51.084;16.748;2023-06-04T12:45:44;2.50;;;1.90;;
72095;SDS011;59968;51.084;16.748;2023-06-04T12:48:13;3.20;;;2.10;;
72095;SDS011;59968;51.084;16.748;2023-06-04T12:50:44;3.80;;;2.10;;
72095;SDS011;59968;51.084;16.748;2023-06-04T12:53:12;4.00;;;1.90;;
72095;SDS011;59968;51.084;16.748;2023-06-04T12:55:41;3.00;;;2.00;;
72095;SDS011;59968;51.084;16.748;2023-06-04T12:58:09;3.40;;;2.20;;
72095;SDS011;59968;51.084;16.748;2023-06-04T13:00:38;6.00;;;2.10;;
72095;SDS011;59968;51.084;16.748;2023-06-04T13:03:08;2.80;;;1.60;;
72095;SDS011;59968;51.084;16.748;2023-06-04T13:05:37;4.30;;;2.20;;
72095;SDS011;59968;51.084;16.748;2023-06-04T13:08:07;3.10;;;1.80;;
72095;SDS011;59968;51.084;16.748;2023-06-04T13:10:36;4.00;;;1.80;;
72095;SDS011;59968;51.084;16.748;2023-06-04T13:13:05;2.80;;;2.10;;
72095;SDS011;59968;51.084;16.748;2023-06-04T13:15:35;3.90;;;2.30;;
72095;SDS011;59968;51.084;16.748;2023-06-04T13:18:07;3.20;;;2.00;;
72095;SDS011;59968;51.084;16.748;2023-06-04T13:20:46;2.70;;;1.80;;
72095;SDS011;59968;51.084;16.748;2023-06-04T13:23:15;4.40;;;2.00;;
72095;SDS011;59968;51.084;16.748;2023-06-04T13:25:45;2.50;;;1.80;;
72095;SDS011;59968;51.084;16.748;2023-06-04T13:28:14;3.50;;;2.00;;
72095;SDS011;59968;51.084;16.748;2023-06-04T13:30:44;3.20;;;1.90;;
72095;SDS011;59968;51.084;16.748;2023-06-04T13:33:13;3.00;;;2.10;;
72095;SDS011;59968;51.084;16.748;2023-06-04T13:35:42;2.40;;;1.70;;
72095;SDS011;59968;51.084;16.748;2023-06-04T13:38:15;2.50;;;2.00;;
72095;SDS011;59968;51.084;16.748;2023-06-04T13:40:45;5.00;;;2.00;;
72095;SDS011;59968;51.084;16.748;2023-06-04T13:43:14;3.90;;;2.10;;
72095;SDS011;59968;51.084;16.748;2023-06-04T13:45:45;4.30;;;1.80;;
72095;SDS011;59968;51.084;16.748;2023-06-04T13:48:17;5.20;;;1.80;;
72095;SDS011;59968;51.084;16.748;2023-06-04T13:50:47;3.60;;;1.90;;
72095;SDS011;59968;51.084;16.748;2023-06-04T13:53:16;4.00;;;1.70;;
72095;SDS011;59968;51.084;16.748;2023-06-04T13:55:57;2.10;;;1.70;;
72095;SDS011;59968;51.084;16.748;2023-06-04T13:58:29;2.90;;;1.80;;
72095;SDS011;59968;51.084;16.748;2023-06-04T14:01:05;3.60;;;1.80;;
72095;SDS011;59968;51.084;16.748;2023-06-04T14:03:34;3.40;;;2.00;;
72095;SDS011;59968;51.084;16.748;2023-06-04T14:06:03;3.10;;;2.30;;
72095;SDS011;59968;51.084;16.748;2023-06-04T14:08:32;4.20;;;2.00;;
72095;SDS011;59968;51.084;16.748;2023-06-04T14:11:05;2.20;;;1.70;;
72095;SDS011;59968;51.084;16.748;2023-06-04T14:13:42;2.70;;;1.80;;
72095;SDS011;59968;51.084;16.748;2023-06-04T14:16:18;3.00;;;1.90;;
72095;SDS011;59968;51.084;16.748;2023-06-04T14:18:47;4.00;;;2.00;;
72095;SDS011;59968;51.084;16.748;2023-06-04T14:21:15;3.80;;;1.90;;
72095;SDS011;59968;51.084;16.748;2023-06-04T14:23:44;3.60;;;1.90;;
72095;SDS011;59968;51.084;16.748;2023-06-04T14:26:13;2.70;;;1.60;;
72095;SDS011;59968;51.084;16.748;2023-06-04T14:28:42;3.20;;;2.00;;
72095;SDS011;59968;51.084;16.748;2023-06-04T14:31:10;2.40;;;1.70;;
72095;SDS011;59968;51.084;16.748;2023-06-04T14:33:40;1.90;;;1.60;;
72095;SDS011;59968;51.084;16.748;2023-06-04T14:36:08;5.30;;;1.70;;
72095;SDS011;59968;51.084;16.748;2023-06-04T14:38:37;3.20;;;1.50;;
72095;SDS011;59968;51.084;16.748;2023-06-04T14:41:07;2.40;;;1.80;;
72095;SDS011;59968;51.084;16.748;2023-06-04T14:43:36;4.40;;;1.50;;
72095;SDS011;59968;51.084;16.748;2023-06-04T14:46:05;2.30;;;1.50;;
72095;SDS011;59968;51.084;16.748;2023-06-04T14:48:34;3.40;;;2.00;;
72095;SDS011;59968;51.084;16.748;2023-06-04T14:51:02;2.50;;;1.70;;
72095;SDS011;59968;51.084;16.748;2023-06-04T14:53:30;3.10;;;1.70;;
72095;SDS011;59968;51.084;16.748;2023-06-04T14:55:59;3.10;;;2.00;;
72095;SDS011;59968;51.084;16.748;2023-06-04T14:58:28;3.50;;;1.80;;
72095;SDS011;59968;51.084;16.748;2023-06-04T15:00:56;3.10;;;1.80;;
72095;SDS011;59968;51.084;16.748;2023-06-04T15:03:29;2.90;;;1.80;;
72095;SDS011;59968;51.084;16.748;2023-06-04T15:05:58;2.50;;;2.20;;
72095;SDS011;59968;51.084;16.748;2023-06-04T15:08:46;2.80;;;1.90;;
72095;SDS011;59968;51.084;16.748;2023-06-04T15:11:14;4.30;;;2.00;;
72095;SDS011;59968;51.084;16.748;2023-06-04T15:13:43;4.60;;;2.10;;